Time;durP1;ratioP1;P1;durP2;ratioP2;P2;SDS_P1;SDS_P2;PMS_P1;PMS_P2;Temp;Humidity;BMP_temperature;BMP_pressure;BME280_temperature;BME280_humidity;BME280_pressure;Samples;Min_cycle;Max_cycle;Signal;HPM_P1;HPM_P2
2022/10/29 00:00:38;;;;;;;11.15;4.20;;;13.20;99.90;;;;;;4995904;28;20050;-77
2022/10/29 00:03:04;;;;;;;12.23;4.18;;;13.20;99.90;;;;;;4994427;28;20046;-76
2022/10/29 00:05:30;;;;;;;14.68;5.00;;;13.20;99.90;;;;;;4989024;28;20050;-77
2022/10/29 00:07:55;;;;;;;15.02;5.35;;;13.20;99.90;;;;;;4989289;28;20426;-77
2022/10/29 00:10:21;;;;;;;16.95;5.15;;;13.20;99.90;;;;;;4995103;28;20073;-77
2022/10/29 00:12:47;;;;;;;15.85;4.80;;;13.10;99.90;;;;;;5011453;28;20108;-76
2022/10/29 00:15:13;;;;;;;14.93;5.05;;;13.10;99.90;;;;;;4978147;28;20121;-76
2022/10/29 00:17:38;;;;;;;13.63;4.70;;;13.10;99.90;;;;;;4995373;28;20093;-76
2022/10/29 00:20:05;;;;;;;19.98;5.38;;;13.00;99.90;;;;;;4962451;28;20038;-76
2022/10/29 00:22:30;;;;;;;17.02;5.25;;;13.00;99.90;;;;;;4973970;28;20050;-76
2022/10/29 00:24:56;;;;;;;16.13;4.80;;;13.00;99.90;;;;;;4985980;28;20096;-76
2022/10/29 00:27:22;;;;;;;15.57;4.70;;;13.00;99.90;;;;;;4994942;28;20066;-76
2022/10/29 00:29:47;;;;;;;15.57;4.82;;;13.00;99.90;;;;;;4959329;28;20045;-76
2022/10/29 00:32:13;;;;;;;13.60;4.20;;;13.00;99.90;;;;;;4989618;28;20046;-76
2022/10/29 00:34:39;;;;;;;15.25;4.93;;;13.00;99.90;;;;;;4978218;28;20073;-76
2022/10/29 00:37:05;;;;;;;15.30;4.70;;;13.00;99.90;;;;;;4962456;28;20129;-77
2022/10/29 00:39:34;;;;;;;17.23;4.78;;;13.00;99.90;;;;;;4994339;28;20049;-76
2022/10/29 00:42:00;;;;;;;13.35;4.45;;;13.00;99.90;;;;;;4959827;28;20046;-77
2022/10/29 00:44:39;;;;;;;16.58;4.72;;;13.00;99.90;;;;;;4969069;28;20062;-77
2022/10/29 00:47:27;;;;;;;13.65;4.38;;;12.90;99.90;;;;;;4988574;28;20173;-77
2022/10/29 00:49:58;;;;;;;14.57;4.30;;;12.90;99.90;;;;;;4977513;28;20125;-77
2022/10/29 00:52:24;;;;;;;13.70;4.70;;;12.90;99.90;;;;;;4978204;28;20065;-77
2022/10/29 00:54:52;;;;;;;12.48;4.32;;;12.90;99.90;;;;;;4964342;28;20487;-77
2022/10/29 00:57:30;;;;;;;12.63;3.90;;;12.80;99.90;;;;;;4978699;28;20047;-77
2022/10/29 00:59:56;;;;;;;16.92;4.72;;;12.80;99.90;;;;;;4994262;28;20053;-77
2022/10/29 01:02:23;;;;;;;13.98;4.47;;;12.80;99.90;;;;;;4994535;28;20046;-77
2022/10/29 01:04:50;;;;;;;18.20;5.78;;;12.80;99.90;;;;;;4980919;28;20498;-77
2022/10/29 01:07:16;;;;;;;15.38;5.38;;;12.80;99.90;;;;;;4993484;28;20150;-77
2022/10/29 01:09:42;;;;;;;12.70;3.90;;;12.80;99.90;;;;;;4999298;28;20129;-77
2022/10/29 01:12:42;;;;;;;21.58;6.55;;;12.70;99.90;;;;;;4991175;28;20062;-76
2022/10/29 01:15:25;;;;;;;11.90;3.95;;;12.70;99.90;;;;;;4994329;28;20057;-76
2022/10/29 01:18:17;;;;;;;13.10;3.95;;;12.70;99.90;;;;;;4981870;28;20050;-77
2022/10/29 01:21:12;;;;;;;14.25;3.92;;;12.70;99.90;;;;;;4990550;28;20038;-77
2022/10/29 01:24:07;;;;;;;12.65;3.75;;;12.70;99.90;;;;;;4993774;28;20114;-76
2022/10/29 01:27:06;;;;;;;15.35;4.70;;;12.70;99.90;;;;;;4984139;28;20057;-76
2022/10/29 01:30:30;;;;;;;12.00;4.32;;;12.70;99.90;;;;;;4980393;28;20081;-77
2022/10/29 01:32:55;;;;;;;13.50;4.60;;;12.70;99.90;;;;;;4902561;29;20050;-76
2022/10/29 01:35:33;;;;;;;19.13;6.03;;;12.70;99.90;;;;;;4900659;29;20423;-76
2022/10/29 01:37:59;;;;;;;12.52;4.60;;;12.60;99.90;;;;;;4952649;28;20141;-77
2022/10/29 01:41:10;;;;;;;16.00;5.63;;;12.60;99.90;;;;;;4993968;28;20486;-76
2022/10/29 01:43:56;;;;;;;14.48;4.50;;;12.60;99.90;;;;;;4982544;28;20078;-77
2022/10/29 01:46:32;;;;;;;12.80;4.30;;;12.50;99.90;;;;;;4993082;28;20042;-77
2022/10/29 01:49:04;;;;;;;11.15;3.85;;;12.50;99.90;;;;;;4984343;28;20090;-76
2022/10/29 01:51:33;;;;;;;10.93;4.25;;;12.50;99.90;;;;;;4991942;28;20089;-77
2022/10/29 01:54:01;;;;;;;15.40;5.82;;;12.50;99.90;;;;;;4976498;28;20045;-77
2022/10/29 01:56:26;;;;;;;14.43;5.40;;;12.50;99.90;;;;;;4977279;28;20081;-77
2022/10/29 01:58:56;;;;;;;20.02;7.20;;;12.40;99.90;;;;;;4992567;28;20074;-77
2022/10/29 02:01:33;;;;;;;16.38;6.72;;;12.40;99.90;;;;;;4993361;28;20121;-77
2022/10/29 02:04:04;;;;;;;14.10;6.45;;;12.40;99.90;;;;;;4992448;28;20463;-77
2022/10/29 02:06:43;;;;;;;11.80;5.07;;;12.40;99.90;;;;;;4993339;28;20081;-77
2022/10/29 02:09:17;;;;;;;13.95;4.95;;;12.40;99.90;;;;;;4993301;28;20414;-77
2022/10/29 02:11:53;;;;;;;14.23;5.40;;;12.40;99.90;;;;;;4994367;28;20046;-77
2022/10/29 02:14:32;;;;;;;20.80;8.90;;;12.40;99.90;;;;;;4992622;28;20355;-77
2022/10/29 02:16:59;;;;;;;12.75;5.80;;;12.40;99.90;;;;;;4993071;28;20061;-77
2022/10/29 02:19:29;;;;;;;13.43;5.90;;;12.40;99.90;;;;;;4992399;28;20390;-77
2022/10/29 02:21:55;;;;;;;20.58;7.05;;;12.30;99.90;;;;;;4986567;28;20494;-77
2022/10/29 02:24:20;;;;;;;34.05;13.60;;;12.30;99.90;;;;;;4976257;28;20042;-77
2022/10/29 02:26:46;;;;;;;20.85;9.20;;;12.30;99.90;;;;;;4976585;28;20073;-77
2022/10/29 02:29:11;;;;;;;15.85;7.55;;;12.30;99.90;;;;;;4960646;28;20042;-77
2022/10/29 02:31:37;;;;;;;28.30;13.48;;;12.30;99.90;;;;;;5009484;28;20112;-77
2022/10/29 02:34:03;;;;;;;31.10;14.18;;;12.30;99.90;;;;;;5007793;28;20038;-77
2022/10/29 02:36:29;;;;;;;18.05;8.85;;;12.20;99.90;;;;;;4992825;28;20126;-77
2022/10/29 02:38:54;;;;;;;18.73;9.07;;;12.20;99.90;;;;;;5008775;28;20038;-77
2022/10/29 02:41:20;;;;;;;29.25;12.60;;;12.20;99.90;;;;;;4992678;28;20049;-77
2022/10/29 02:43:46;;;;;;;21.40;9.93;;;12.20;99.90;;;;;;4965079;28;20047;-77
2022/10/29 02:46:14;;;;;;;15.70;7.13;;;12.10;99.90;;;;;;4991267;28;20061;-77
2022/10/29 02:48:40;;;;;;;13.13;6.55;;;12.20;99.90;;;;;;4991998;28;20120;-77
2022/10/29 02:51:06;;;;;;;26.52;13.25;;;12.20;99.90;;;;;;4992058;28;20068;-78
2022/10/29 02:53:32;;;;;;;13.65;6.57;;;12.20;99.90;;;;;;4992545;28;20474;-77
2022/10/29 02:55:57;;;;;;;35.72;12.27;;;12.10;99.90;;;;;;4992504;28;20141;-77
2022/10/29 02:58:23;;;;;;;16.55;6.47;;;12.10;99.90;;;;;;4975576;28;20474;-77
2022/10/29 03:00:49;;;;;;;14.25;6.90;;;12.10;99.90;;;;;;4992696;28;20054;-77
2022/10/29 03:03:15;;;;;;;21.45;9.95;;;12.10;99.90;;;;;;4991664;28;20038;-77
2022/10/29 03:05:41;;;;;;;19.55;8.75;;;12.10;99.90;;;;;;4965460;28;20078;-77
2022/10/29 03:08:07;;;;;;;15.10;7.10;;;12.10;99.90;;;;;;4972808;28;20137;-77
2022/10/29 03:10:32;;;;;;;18.08;8.75;;;12.10;99.90;;;;;;4992380;28;20050;-77
2022/10/29 03:12:58;;;;;;;16.10;7.65;;;12.10;99.90;;;;;;5007951;28;20125;-77
2022/10/29 03:15:24;;;;;;;93.07;13.30;;;12.00;99.90;;;;;;4992290;28;20121;-77
2022/10/29 03:17:50;;;;;;;13.07;6.75;;;12.00;99.90;;;;;;4975505;28;20144;-78
2022/10/29 03:20:16;;;;;;;17.38;7.60;;;11.90;99.90;;;;;;4989085;28;20043;-77
2022/10/29 03:22:41;;;;;;;24.35;10.98;;;12.00;99.90;;;;;;4983143;28;20073;-77
2022/10/29 03:25:07;;;;;;;15.45;8.30;;;11.90;99.90;;;;;;4991707;28;20049;-77
2022/10/29 03:27:43;;;;;;;19.50;9.93;;;12.00;99.90;;;;;;4992129;28;20193;-77
2022/10/29 03:30:10;;;;;;;15.02;7.15;;;12.00;99.90;;;;;;4991761;28;20050;-77
2022/10/29 03:32:44;;;;;;;14.27;7.97;;;12.00;99.90;;;;;;4992273;28;20070;-77
2022/10/29 03:35:11;;;;;;;22.55;12.35;;;11.90;99.90;;;;;;4991148;28;20042;-77
2022/10/29 03:37:37;;;;;;;26.08;12.27;;;12.00;99.90;;;;;;4991939;28;20371;-78
2022/10/29 03:40:03;;;;;;;22.20;12.05;;;11.90;99.90;;;;;;4992100;28;20053;-77
2022/10/29 03:42:31;;;;;;;23.23;11.98;;;11.90;99.90;;;;;;4991889;28;20045;-77
2022/10/29 03:44:58;;;;;;;32.15;16.20;;;11.90;99.90;;;;;;4991688;28;20050;-77
2022/10/29 03:47:24;;;;;;;50.63;19.60;;;11.90;99.90;;;;;;4991564;28;20046;-77
2022/10/29 03:49:50;;;;;;;26.63;14.73;;;11.90;99.90;;;;;;4991062;28;20046;-77
2022/10/29 03:52:15;;;;;;;18.00;10.30;;;11.90;99.90;;;;;;4991579;28;20054;-77
2022/10/29 03:54:41;;;;;;;21.58;11.88;;;12.00;99.90;;;;;;4995913;28;20113;-77
2022/10/29 03:57:07;;;;;;;27.23;16.88;;;11.90;99.90;;;;;;4976015;28;20521;-77
2022/10/29 03:59:32;;;;;;;31.88;17.00;;;12.00;99.90;;;;;;4978582;28;20073;-77
2022/10/29 04:01:58;;;;;;;37.65;16.27;;;11.90;99.90;;;;;;4975587;28;20085;-77
2022/10/29 04:04:24;;;;;;;26.13;14.93;;;11.90;99.90;;;;;;4991154;28;20038;-77
2022/10/29 04:06:49;;;;;;;19.92;12.32;;;11.90;99.90;;;;;;4991383;28;20042;-77
2022/10/29 04:09:15;;;;;;;23.50;12.98;;;11.90;99.90;;;;;;4995496;28;20125;-77
2022/10/29 04:11:41;;;;;;;25.33;14.75;;;11.90;99.90;;;;;;4979410;28;20042;-76
2022/10/29 04:14:06;;;;;;;27.25;15.63;;;11.90;99.90;;;;;;4994683;28;20046;-76
2022/10/29 04:16:32;;;;;;;19.48;11.95;;;11.90;99.90;;;;;;4982189;28;20419;-76
2022/10/29 04:18:58;;;;;;;21.35;12.77;;;11.90;99.90;;;;;;4975011;28;20042;-77
2022/10/29 04:21:24;;;;;;;29.67;16.30;;;11.90;99.90;;;;;;4987079;28;20081;-76
2022/10/29 04:23:50;;;;;;;30.13;17.80;;;11.90;99.90;;;;;;4992503;28;20371;-76
2022/10/29 04:26:16;;;;;;;53.75;23.02;;;12.00;99.90;;;;;;4995238;28;20053;-76
2022/10/29 04:28:43;;;;;;;34.42;19.58;;;12.00;99.90;;;;;;4994763;28;20046;-76
2022/10/29 04:31:12;;;;;;;27.25;17.10;;;12.00;99.90;;;;;;4995173;28;20050;-76
2022/10/29 04:33:37;;;;;;;19.25;12.30;;;12.10;99.90;;;;;;4994179;28;20085;-76
2022/10/29 04:36:04;;;;;;;21.13;12.15;;;12.10;99.90;;;;;;4995115;28;20058;-77
2022/10/29 04:38:30;;;;;;;21.80;12.32;;;12.10;99.90;;;;;;4978360;28;20129;-77
2022/10/29 04:40:59;;;;;;;24.27;14.20;;;12.10;99.90;;;;;;4978544;28;20109;-76
2022/10/29 04:43:26;;;;;;;20.23;11.88;;;12.20;99.90;;;;;;4994328;28;20049;-77
2022/10/29 04:45:53;;;;;;;33.42;16.83;;;12.20;99.90;;;;;;4994612;28;20046;-76
2022/10/29 04:48:19;;;;;;;39.22;19.77;;;12.20;99.90;;;;;;5009764;28;20470;-76
2022/10/29 04:50:46;;;;;;;31.00;15.65;;;12.30;99.90;;;;;;4994372;28;20058;-76
2022/10/29 04:53:11;;;;;;;22.90;13.80;;;12.30;99.90;;;;;;4994154;28;20054;-76
2022/10/29 04:55:38;;;;;;;30.17;16.95;;;12.40;99.90;;;;;;4994913;28;20490;-76
2022/10/29 04:58:05;;;;;;;85.03;26.38;;;12.40;99.90;;;;;;4994237;28;20455;-76
2022/10/29 05:00:31;;;;;;;40.28;19.73;;;12.40;99.90;;;;;;4994517;28;20050;-76
2022/10/29 05:02:58;;;;;;;34.85;18.38;;;12.50;99.90;;;;;;4993827;28;20367;-76
2022/10/29 05:05:24;;;;;;;33.80;17.02;;;13.10;99.90;;;;;;4977644;28;20075;-76
2022/10/29 05:07:58;;;;;;;40.03;19.55;;;12.50;99.90;;;;;;4994352;28;20052;-76
2022/10/29 05:10:30;;;;;;;42.72;19.73;;;12.50;99.90;;;;;;4993304;28;20038;-76
2022/10/29 05:13:07;;;;;;;37.17;18.97;;;12.50;99.90;;;;;;4994278;28;20070;-76
2022/10/29 05:15:33;;;;;;;29.98;16.48;;;12.60;99.90;;;;;;4988354;28;20046;-76
2022/10/29 05:17:59;;;;;;;28.30;15.13;;;12.60;99.90;;;;;;4992981;28;20434;-76
2022/10/29 05:20:26;;;;;;;32.53;17.42;;;12.60;99.90;;;;;;4989731;28;20058;-76
2022/10/29 05:23:06;;;;;;;41.35;20.17;;;12.60;99.90;;;;;;4981435;28;20081;-76
2022/10/29 05:25:34;;;;;;;30.33;16.63;;;12.60;99.90;;;;;;4992081;28;20054;-76
2022/10/29 05:28:17;;;;;;;36.45;18.15;;;12.60;99.90;;;;;;4994053;28;20065;-77
2022/10/29 05:30:43;;;;;;;36.72;19.90;;;12.70;99.90;;;;;;4993837;28;20046;-76
2022/10/29 05:33:12;;;;;;;67.93;27.40;;;12.70;99.90;;;;;;4976815;28;20050;-76
2022/10/29 05:35:37;;;;;;;36.75;20.20;;;12.70;99.90;;;;;;4993642;28;20038;-76
2022/10/29 05:38:04;;;;;;;44.25;21.50;;;12.80;99.90;;;;;;4977576;28;20049;-76
2022/10/29 05:40:30;;;;;;;28.40;15.55;;;12.70;99.90;;;;;;4992677;28;20051;-76
2022/10/29 05:42:55;;;;;;;34.03;18.52;;;12.70;99.90;;;;;;4977046;28;20180;-76
2022/10/29 05:45:21;;;;;;;23.05;13.38;;;12.70;99.90;;;;;;4993394;28;20046;-77
2022/10/29 05:47:47;;;;;;;23.88;14.07;;;12.70;99.90;;;;;;4992954;28;20042;-76
2022/10/29 05:50:13;;;;;;;37.75;20.10;;;13.00;99.90;;;;;;4993003;28;20081;-76
2022/10/29 05:52:39;;;;;;;35.05;20.27;;;12.80;99.90;;;;;;4993169;28;20601;-76
2022/10/29 05:55:06;;;;;;;44.40;21.30;;;12.80;99.90;;;;;;4981839;28;20043;-76
2022/10/29 05:57:32;;;;;;;29.23;16.80;;;12.80;99.90;;;;;;4985254;28;20046;-76
2022/10/29 05:59:57;;;;;;;24.25;14.93;;;12.80;99.90;;;;;;4986459;28;20169;-76
2022/10/29 06:02:23;;;;;;;23.45;13.60;;;12.80;99.90;;;;;;4976414;28;20049;-76
2022/10/29 06:04:49;;;;;;;22.27;12.65;;;12.70;99.90;;;;;;4975860;28;20381;-77
2022/10/29 06:07:14;;;;;;;22.85;13.48;;;12.60;99.90;;;;;;4990589;28;20057;-77
2022/10/29 06:09:40;;;;;;;32.35;17.77;;;12.60;99.90;;;;;;4980723;28;20364;-77
2022/10/29 06:12:06;;;;;;;39.20;19.38;;;12.60;99.90;;;;;;4992030;28;20049;-76
2022/10/29 06:14:32;;;;;;;31.20;18.08;;;12.60;99.90;;;;;;4993214;28;20057;-76
2022/10/29 06:16:57;;;;;;;38.05;17.58;;;12.70;99.90;;;;;;4992804;28;20096;-76
2022/10/29 06:19:23;;;;;;;23.73;12.85;;;12.70;99.90;;;;;;4985015;28;20125;-76
2022/10/29 06:21:49;;;;;;;34.30;14.68;;;12.50;99.90;;;;;;4988234;28;20046;-77
2022/10/29 06:24:14;;;;;;;59.97;21.30;;;12.50;99.90;;;;;;4992620;28;20038;-76
2022/10/29 06:26:40;;;;;;;25.45;12.60;;;12.50;99.90;;;;;;4993107;28;20386;-76
2022/10/29 06:29:06;;;;;;;32.25;14.63;;;12.40;99.90;;;;;;4992528;28;20046;-76
2022/10/29 06:31:31;;;;;;;32.90;14.00;;;12.40;99.90;;;;;;4973257;28;20375;-76
2022/10/29 06:33:57;;;;;;;30.90;14.60;;;12.40;99.90;;;;;;4990323;28;20054;-76
2022/10/29 06:36:23;;;;;;;21.75;10.57;;;12.40;99.90;;;;;;4991506;28;20043;-76
2022/10/29 06:38:49;;;;;;;30.42;15.05;;;12.40;99.90;;;;;;4992349;28;20141;-77
2022/10/29 06:41:15;;;;;;;34.63;16.80;;;12.40;99.90;;;;;;4992986;28;20053;-76
2022/10/29 06:43:40;;;;;;;26.50;14.52;;;12.40;99.90;;;;;;4980075;28;20039;-76
2022/10/29 06:46:06;;;;;;;27.58;12.25;;;12.40;99.90;;;;;;4983686;28;20063;-76
2022/10/29 06:48:32;;;;;;;21.17;10.93;;;12.40;99.90;;;;;;4981150;28;20058;-76
2022/10/29 06:50:59;;;;;;;23.40;12.13;;;12.30;99.90;;;;;;4982814;28;20065;-76
2022/10/29 06:53:25;;;;;;;28.63;15.35;;;12.40;99.90;;;;;;4978698;28;20093;-78
2022/10/29 06:55:51;;;;;;;38.33;19.88;;;12.40;99.90;;;;;;4964729;28;20038;-77
2022/10/29 06:58:19;;;;;;;41.88;20.30;;;12.40;99.90;;;;;;4980145;28;20050;-78
2022/10/29 07:00:45;;;;;;;26.88;14.38;;;12.40;99.90;;;;;;4985113;28;20045;-76
2022/10/29 07:03:13;;;;;;;59.03;26.08;;;12.40;99.90;;;;;;4984020;28;20050;-77
2022/10/29 07:05:39;;;;;;;42.65;20.75;;;12.40;99.90;;;;;;4973605;28;20060;-77
2022/10/29 07:08:05;;;;;;;31.00;19.15;;;12.40;99.90;;;;;;4986161;28;20046;-77
2022/10/29 07:10:31;;;;;;;35.08;18.92;;;12.50;99.90;;;;;;4991512;28;20429;-77
2022/10/29 07:12:58;;;;;;;30.27;17.52;;;12.50;99.90;;;;;;4986211;28;20374;-77
2022/10/29 07:15:24;;;;;;;30.02;16.17;;;12.50;99.90;;;;;;4983410;28;20046;-77
2022/10/29 07:18:03;;;;;;;28.63;14.70;;;12.50;99.90;;;;;;4968968;28;20525;-77
2022/10/29 07:20:33;;;;;;;35.38;14.88;;;12.50;99.90;;;;;;4989844;28;20057;-77
2022/10/29 07:23:00;;;;;;;23.13;13.95;;;12.60;99.90;;;;;;4987496;28;20054;-76
2022/10/29 07:25:26;;;;;;;30.13;14.63;;;12.60;99.90;;;;;;4983468;28;20046;-77
2022/10/29 07:27:52;;;;;;;35.05;19.17;;;12.50;99.90;;;;;;4987985;28;20121;-77
2022/10/29 07:30:18;;;;;;;24.67;15.18;;;12.50;99.90;;;;;;4990615;28;20109;-77
2022/10/29 07:32:44;;;;;;;32.78;18.02;;;12.60;99.90;;;;;;4991638;28;20050;-76
2022/10/29 07:35:10;;;;;;;28.83;17.40;;;12.60;99.90;;;;;;4990848;28;20046;-77
2022/10/29 07:37:35;;;;;;;27.55;16.85;;;12.60;99.90;;;;;;4987913;28;20097;-76
2022/10/29 07:40:01;;;;;;;28.08;17.85;;;12.60;99.90;;;;;;4988433;28;20522;-75
2022/10/29 07:42:27;;;;;;;28.73;18.23;;;12.70;99.90;;;;;;4987228;28;20051;-76
2022/10/29 07:44:52;;;;;;;25.63;17.70;;;12.70;99.90;;;;;;4989554;28;20379;-75
2022/10/29 07:47:18;;;;;;;26.85;17.95;;;12.70;99.90;;;;;;4978913;28;20046;-76
2022/10/29 07:49:44;;;;;;;27.27;17.95;;;12.70;99.90;;;;;;4994019;28;20466;-76
2022/10/29 07:52:09;;;;;;;28.15;18.02;;;12.70;99.90;;;;;;4978682;28;20058;-75
2022/10/29 07:54:35;;;;;;;28.58;18.98;;;12.70;99.90;;;;;;4984667;28;20074;-75
2022/10/29 07:57:01;;;;;;;32.03;19.88;;;12.80;99.90;;;;;;4995644;28;20042;-75
2022/10/29 07:59:26;;;;;;;32.45;21.50;;;12.80;99.90;;;;;;4992516;28;20053;-76
2022/10/29 08:01:52;;;;;;;32.13;22.27;;;12.90;99.90;;;;;;4993584;28;20117;-76
2022/10/29 08:04:18;;;;;;;32.97;21.55;;;12.90;99.90;;;;;;4986860;28;20041;-76
2022/10/29 08:06:44;;;;;;;36.75;23.17;;;12.90;99.90;;;;;;4987100;28;20053;-76
2022/10/29 08:09:11;;;;;;;33.17;22.45;;;13.00;99.90;;;;;;4991634;28;20042;-76
2022/10/29 08:11:37;;;;;;;35.40;23.55;;;13.10;99.90;;;;;;4993443;28;20073;-76
2022/10/29 08:14:02;;;;;;;34.75;24.02;;;13.10;99.90;;;;;;4985447;28;20062;-76
2022/10/29 08:16:28;;;;;;;35.67;22.55;;;13.20;99.90;;;;;;4995930;28;20042;-74
2022/10/29 08:18:54;;;;;;;31.80;22.50;;;13.30;99.90;;;;;;4993386;28;20129;-75
2022/10/29 08:21:21;;;;;;;31.20;21.15;;;13.40;99.90;;;;;;4986269;28;20085;-75
2022/10/29 08:23:46;;;;;;;35.47;22.33;;;13.50;99.90;;;;;;4992305;28;20445;-76
2022/10/29 08:26:12;;;;;;;31.23;21.40;;;13.50;99.90;;;;;;4981469;28;20050;-75
2022/10/29 08:28:38;;;;;;;33.08;21.60;;;13.50;99.90;;;;;;4989969;28;20053;-74
2022/10/29 08:31:03;;;;;;;35.80;23.05;;;13.60;99.90;;;;;;4984258;28;20050;-74
2022/10/29 08:33:29;;;;;;;35.00;22.80;;;13.70;99.90;;;;;;4982513;28;20046;-76
2022/10/29 08:35:55;;;;;;;35.00;22.98;;;13.70;99.90;;;;;;4975642;28;20038;-75
2022/10/29 08:38:22;;;;;;;42.15;25.77;;;13.80;99.90;;;;;;4974218;28;20039;-75
2022/10/29 08:41:06;;;;;;;42.70;25.15;;;13.80;99.90;;;;;;4976334;28;20042;-75
2022/10/29 08:43:50;;;;;;;47.50;27.20;;;13.90;99.90;;;;;;4976167;28;20039;-76
2022/10/29 08:46:44;;;;;;;43.78;26.05;;;13.90;99.90;;;;;;4975784;28;20460;-75
2022/10/29 08:49:20;;;;;;;42.63;26.67;;;14.10;99.90;;;;;;4991398;28;20045;-77
2022/10/29 08:51:58;;;;;;;47.70;25.48;;;14.10;99.90;;;;;;4994387;28;20367;-76
2022/10/29 08:54:28;;;;;;;41.95;25.98;;;14.20;99.90;;;;;;4977654;28;20489;-75
2022/10/29 08:56:57;;;;;;;47.75;26.48;;;14.30;99.90;;;;;;4979810;28;20077;-76
2022/10/29 08:59:25;;;;;;;48.45;26.63;;;14.40;99.90;;;;;;4993054;28;20478;-76
2022/10/29 09:01:52;;;;;;;42.45;24.95;;;14.60;99.90;;;;;;4980488;28;20390;-76
2022/10/29 09:04:20;;;;;;;44.33;27.52;;;14.80;99.90;;;;;;4993340;28;20426;-76
2022/10/29 09:07:15;;;;;;;38.53;22.85;;;14.90;99.90;;;;;;4993257;28;20042;-77
2022/10/29 09:10:03;;;;;;;42.33;22.67;;;15.20;99.90;;;;;;4992562;28;20232;-76
2022/10/29 09:12:48;;;;;;;31.98;19.85;;;15.40;99.90;;;;;;4982129;28;20074;-77
2022/10/29 09:15:38;;;;;;;30.92;18.60;;;15.60;99.90;;;;;;4993638;28;20478;-76
2022/10/29 09:18:22;;;;;;;32.50;18.30;;;15.70;99.90;;;;;;4993028;28;20042;-74
2022/10/29 09:20:57;;;;;;;31.98;18.38;;;15.80;99.90;;;;;;4993617;28;20378;-75
2022/10/29 09:24:01;;;;;;;28.40;16.75;;;15.90;99.90;;;;;;4980266;28;20129;-76
2022/10/29 09:26:56;;;;;;;26.58;16.20;;;16.00;99.90;;;;;;4973792;28;20054;-77
2022/10/29 09:29:44;;;;;;;29.02;16.40;;;16.00;99.90;;;;;;4980113;28;20078;-77
2022/10/29 09:32:44;;;;;;;26.35;16.13;;;16.20;99.90;;;;;;4993496;28;20145;-77
2022/10/29 09:35:14;;;;;;;26.75;15.50;;;16.30;99.90;;;;;;4989943;28;20495;-77
2022/10/29 09:37:54;;;;;;;25.67;16.48;;;16.40;99.90;;;;;;4993400;28;20549;-77
2022/10/29 09:40:39;;;;;;;29.80;18.05;;;16.40;99.90;;;;;;4992621;28;20082;-77
2022/10/29 09:43:23;;;;;;;29.23;16.65;;;16.50;99.90;;;;;;4967077;28;20046;-77
2022/10/29 09:46:33;;;;;;;25.83;15.85;;;16.60;99.90;;;;;;4993417;28;20046;-77
2022/10/29 09:49:14;;;;;;;25.65;15.50;;;16.70;99.90;;;;;;4935634;28;20050;-77
2022/10/29 09:51:53;;;;;;;23.42;13.93;;;16.80;99.90;;;;;;4975843;28;20042;-77
2022/10/29 09:54:21;;;;;;;20.27;14.02;;;16.90;99.90;;;;;;4980462;28;20041;-77
2022/10/29 09:56:48;;;;;;;25.85;13.10;;;17.00;99.90;;;;;;4991726;28;20046;-77
2022/10/29 09:59:28;;;;;;;23.88;12.40;;;17.00;99.90;;;;;;4973953;28;20053;-77
2022/10/29 10:01:54;;;;;;;21.60;12.38;;;17.00;99.90;;;;;;4972732;28;20077;-76
2022/10/29 10:04:28;;;;;;;18.90;10.65;;;17.10;99.90;;;;;;4983351;28;20042;-77
2022/10/29 10:07:08;;;;;;;20.42;9.38;;;17.10;99.90;;;;;;4990430;28;20046;-77
2022/10/29 10:09:52;;;;;;;16.45;8.70;;;17.20;99.90;;;;;;4976913;28;20042;-77
2022/10/29 10:12:21;;;;;;;18.48;8.65;;;17.30;99.90;;;;;;4992778;28;20042;-76
2022/10/29 10:14:47;;;;;;;17.00;9.50;;;17.40;99.90;;;;;;4961235;28;20050;-77
2022/10/29 10:17:13;;;;;;;20.33;10.10;;;17.50;99.90;;;;;;4992805;28;20474;-77
2022/10/29 10:19:44;;;;;;;19.73;10.27;;;17.60;99.90;;;;;;4992274;28;20365;-76
2022/10/29 10:22:19;;;;;;;16.67;9.83;;;17.70;99.90;;;;;;4975301;28;20043;-75
2022/10/29 10:24:45;;;;;;;20.83;11.63;;;17.80;99.90;;;;;;4992427;28;20053;-77
2022/10/29 10:27:17;;;;;;;23.80;11.80;;;17.80;99.90;;;;;;4978976;28;20050;-77
2022/10/29 10:29:43;;;;;;;25.70;11.77;;;17.90;99.90;;;;;;4984824;28;20120;-75
2022/10/29 10:32:16;;;;;;;24.05;12.77;;;17.90;99.90;;;;;;4992587;28;20042;-77
2022/10/29 10:34:42;;;;;;;23.42;13.98;;;18.00;99.90;;;;;;5008457;28;20482;-74
2022/10/29 10:37:18;;;;;;;22.92;13.50;;;18.10;99.90;;;;;;4992175;28;20046;-78
2022/10/29 10:40:03;;;;;;;23.75;12.85;;;18.20;99.90;;;;;;4992839;28;20513;-76
2022/10/29 10:42:28;;;;;;;25.02;13.07;;;18.30;99.90;;;;;;4989807;28;20478;-76
2022/10/29 10:45:01;;;;;;;24.20;13.45;;;18.40;99.90;;;;;;4982971;28;20045;-78
2022/10/29 10:47:32;;;;;;;22.95;13.15;;;18.40;99.90;;;;;;4992105;28;20057;-75
2022/10/29 10:50:19;;;;;;;24.88;13.20;;;18.40;99.90;;;;;;4991694;28;20113;-74
2022/10/29 10:52:45;;;;;;;27.13;13.55;;;18.40;99.90;;;;;;4991441;28;20422;-74
2022/10/29 10:55:29;;;;;;;24.13;13.50;;;18.40;99.90;;;;;;4993332;28;20061;-76
2022/10/29 10:58:17;;;;;;;21.25;12.13;;;18.40;99.90;;;;;;4991792;28;20149;-76
2022/10/29 11:01:04;;;;;;;21.40;13.20;;;18.50;99.90;;;;;;4992347;28;20053;-75
2022/10/29 11:03:44;;;;;;;23.85;13.23;;;18.50;99.90;;;;;;4991021;28;20050;-77
2022/10/29 11:06:26;;;;;;;24.48;12.95;;;18.60;99.90;;;;;;4992219;28;20035;-75
2022/10/29 11:08:58;;;;;;;21.23;12.35;;;18.60;99.90;;;;;;4972762;28;20387;-75
2022/10/29 11:11:32;;;;;;;;;;;18.60;99.90;;;;;;4991403;28;20064;-75
2022/10/29 11:14:05;;;;;;;19.98;11.57;;;18.70;99.90;;;;;;4967649;28;19923;-75
2022/10/29 11:16:43;;;;;;;20.10;11.55;;;18.70;99.90;;;;;;4988080;28;20045;-75
2022/10/29 11:19:31;;;;;;;25.15;12.63;;;18.60;99.90;;;;;;4988208;28;20437;-77
2022/10/29 11:22:16;;;;;;;22.13;11.85;;;18.60;99.90;;;;;;4993035;28;20045;-76
2022/10/29 11:24:50;;;;;;;20.33;11.80;;;18.60;99.90;;;;;;4995574;28;20053;-78
2022/10/29 11:27:39;;;;;;;20.98;12.00;;;18.70;99.90;;;;;;4995988;28;20104;-77
2022/10/29 11:30:10;;;;;;;22.60;12.88;;;18.80;99.90;;;;;;4995687;28;20104;-76
2022/10/29 11:33:14;;;;;;;21.92;12.35;;;18.80;99.90;;;;;;4972971;28;20041;-76
2022/10/29 11:36:12;;;;;;;24.38;13.18;;;18.70;99.90;;;;;;4978317;28;20070;-77
2022/10/29 11:38:59;;;;;;;24.48;13.23;;;18.70;99.90;;;;;;4989347;28;20054;-77
2022/10/29 11:41:37;;;;;;;24.30;13.85;;;18.80;99.90;;;;;;4995829;28;20072;-74
2022/10/29 11:44:03;;;;;;;24.60;14.32;;;18.80;99.90;;;;;;4995200;28;20042;-76
2022/10/29 11:46:29;;;;;;;26.95;15.48;;;18.90;99.90;;;;;;4986923;28;20046;-75
2022/10/29 11:49:14;;;;;;;27.15;15.07;;;18.90;99.90;;;;;;4990360;28;20073;-74
2022/10/29 11:52:21;;;;;;;26.38;15.73;;;19.00;99.90;;;;;;4995347;28;20070;-73
2022/10/29 11:55:26;;;;;;;27.80;15.48;;;19.00;99.90;;;;;;4994170;28;20058;-75
2022/10/29 11:58:08;;;;;;;27.38;15.18;;;19.00;99.90;;;;;;4955696;28;20360;-74
2022/10/29 12:01:13;;;;;;;24.45;15.20;;;19.00;99.90;;;;;;4983876;28;20472;-75
2022/10/29 12:03:55;;;;;;;26.67;14.90;;;19.10;99.90;;;;;;4930497;28;20046;-75
2022/10/29 12:06:45;;;;;;;27.42;14.45;;;19.20;99.90;;;;;;4995568;28;20046;-75
2022/10/29 12:09:27;;;;;;;28.40;14.00;;;19.20;99.90;;;;;;4985329;28;20042;-75
2022/10/29 12:12:22;;;;;;;22.55;13.80;;;19.20;99.90;;;;;;4981527;28;20382;-73
2022/10/29 12:15:00;;;;;;;25.48;14.98;;;19.20;99.90;;;;;;4982769;28;20047;-78
2022/10/29 12:17:50;;;;;;;26.67;14.05;;;19.20;99.90;;;;;;4982621;28;20382;-76
2022/10/29 12:20:35;;;;;;;25.50;14.20;;;19.30;99.90;;;;;;4992651;28;20050;-74
2022/10/29 12:23:24;;;;;;;26.23;14.02;;;19.30;99.90;;;;;;4975559;28;20054;-76
2022/10/29 12:25:55;;;;;;;24.92;13.63;;;19.50;99.90;;;;;;4994989;28;20496;-76
2022/10/29 12:28:25;;;;;;;23.27;13.95;;;19.50;99.90;;;;;;4993789;28;20057;-77
2022/10/29 12:30:57;;;;;;;24.75;13.32;;;19.50;99.90;;;;;;4995049;28;20073;-75
2022/10/29 12:33:41;;;;;;;23.60;13.68;;;19.50;99.90;;;;;;4994711;28;20047;-77
2022/10/29 12:36:11;;;;;;;23.88;13.90;;;19.50;99.90;;;;;;4983884;28;20089;-75
2022/10/29 12:38:43;;;;;;;25.70;13.75;;;19.50;99.90;;;;;;4994464;28;20101;-76
2022/10/29 12:41:17;;;;;;;25.40;14.45;;;19.60;99.90;;;;;;4994765;28;20086;-76
2022/10/29 12:43:44;;;;;;;27.15;14.20;;;19.60;99.90;;;;;;4982779;28;20484;-76
2022/10/29 12:46:26;;;;;;;26.05;13.70;;;19.60;99.90;;;;;;5004081;28;20416;-76
2022/10/29 12:49:05;;;;;;;23.73;13.77;;;19.60;99.90;;;;;;4988958;28;20046;-75
2022/10/29 12:51:46;;;;;;;24.63;14.05;;;19.60;99.90;;;;;;4994756;28;20444;-74
2022/10/29 12:54:31;;;;;;;24.33;14.23;;;19.50;99.90;;;;;;4994516;28;20058;-77